createdAt,value
2022-09-03T00:00:34.965Z,2.83
2022-09-03T00:03:08.918Z,3.17
2022-09-03T00:05:39.481Z,2.50
2022-09-03T00:08:14.492Z,3.10
2022-09-03T00:10:41.323Z,3.00
2022-09-03T00:13:08.772Z,2.35
2022-09-03T00:15:36.221Z,2.40
2022-09-03T00:18:06.555Z,2.53
2022-09-03T00:20:43.885Z,2.47
2022-09-03T00:23:12.819Z,2.28
2022-09-03T00:25:39.144Z,2.78
2022-09-03T00:28:15.166Z,2.55
2022-09-03T00:30:42.242Z,2.40
2022-09-03T00:33:18.784Z,2.00
2022-09-03T00:35:45.042Z,2.40
2022-09-03T00:38:11.312Z,2.80
2022-09-03T00:40:46.509Z,1.88
2022-09-03T00:43:22.640Z,2.10
2022-09-03T00:48:27.902Z,2.10
2022-09-03T00:51:19.312Z,2.10
2022-09-03T00:53:45.697Z,2.05
2022-09-03T00:56:20.448Z,1.90
2022-09-03T00:59:06.760Z,1.70
2022-09-03T01:01:41.951Z,1.83
2022-09-03T01:04:17.932Z,1.90
2022-09-03T01:06:49.978Z,2.20
2022-09-03T01:09:28.676Z,2.38
2022-09-03T01:11:59.421Z,1.60
2022-09-03T01:14:49.535Z,1.92
2022-09-03T01:17:34.683Z,2.05
2022-09-03T01:20:00.946Z,1.90
2022-09-03T01:22:50.668Z,1.65
2022-09-03T01:25:32.077Z,1.92
2022-09-03T01:28:23.142Z,2.10
2022-09-03T01:30:54.001Z,1.80
2022-09-03T01:33:40.304Z,1.83
2022-09-03T01:36:30.312Z,1.73
2022-09-03T01:38:59.533Z,2.20
2022-09-03T01:41:53.457Z,1.90
2022-09-03T01:44:19.778Z,1.90
2022-09-03T01:46:49.531Z,1.92
2022-09-03T01:49:22.622Z,2.10
2022-09-03T01:52:00.148Z,1.75
2022-09-03T01:54:34.850Z,2.38
2022-09-03T01:57:35.679Z,1.60
2022-09-03T02:00:19.276Z,1.50
2022-09-03T02:02:48.942Z,1.70
2022-09-03T02:05:18.005Z,1.30
2022-09-03T02:07:46.497Z,1.60
2022-09-03T02:10:15.387Z,2.10
2022-09-03T02:12:44.140Z,1.75
2022-09-03T02:15:12.387Z,1.58
2022-09-03T02:17:40.568Z,1.60
2022-09-03T02:20:11.773Z,1.63
2022-09-03T02:22:41.823Z,1.70
2022-09-03T02:25:08.558Z,1.40
2022-09-03T02:27:34.973Z,1.52
2022-09-03T02:30:01.326Z,1.38
2022-09-03T02:32:28.096Z,1.90
2022-09-03T02:34:54.355Z,1.30
2022-09-03T02:37:20.684Z,1.50
2022-09-03T02:39:47.056Z,1.50
2022-09-03T02:42:14.601Z,1.85
2022-09-03T02:44:59.976Z,1.65
2022-09-03T02:47:31.007Z,1.80
2022-09-03T02:49:57.382Z,1.50
2022-09-03T02:52:23.653Z,1.60
2022-09-03T02:54:49.967Z,1.40
2022-09-03T02:57:16.727Z,1.83
2022-09-03T02:59:53.894Z,1.73
2022-09-03T03:02:20.192Z,1.27
2022-09-03T03:04:46.490Z,1.60
2022-09-03T03:07:12.753Z,1.58
2022-09-03T03:09:39.034Z,1.40
2022-09-03T03:12:05.459Z,1.33
2022-09-03T03:14:31.709Z,1.40
2022-09-03T03:16:58.289Z,1.23
2022-09-03T03:19:24.620Z,1.42
2022-09-03T03:21:50.930Z,1.48
2022-09-03T03:24:17.212Z,1.73
2022-09-03T03:26:43.519Z,1.48
2022-09-03T03:29:14.508Z,1.33
2022-09-03T03:31:40.923Z,1.30
2022-09-03T03:34:07.219Z,1.40
2022-09-03T03:36:33.965Z,1.52
2022-09-03T03:39:01.094Z,1.25
2022-09-03T03:41:28.750Z,1.30
2022-09-03T03:43:57.992Z,1.10
2022-09-03T03:46:24.815Z,1.73
2022-09-03T03:48:52.029Z,1.25
2022-09-03T03:51:19.030Z,1.30
2022-09-03T03:53:45.836Z,1.50
2022-09-03T03:56:13.169Z,1.55
2022-09-03T03:58:43.966Z,1.20
2022-09-03T04:01:12.139Z,1.20
2022-09-03T04:03:38.548Z,1.02
2022-09-03T04:06:05.677Z,1.10
2022-09-03T04:08:34.645Z,1.20
2022-09-03T04:11:01.862Z,1.95
2022-09-03T04:13:32.127Z,1.48
2022-09-03T04:16:02.486Z,0.98
2022-09-03T04:18:29.108Z,1.30
2022-09-03T04:20:59.442Z,1.80
2022-09-03T04:23:25.952Z,1.90
2022-09-03T04:25:53.200Z,1.15
2022-09-03T04:28:19.544Z,1.20
2022-09-03T04:30:47.604Z,1.08
2022-09-03T04:33:15.920Z,1.05
2022-09-03T04:35:43.336Z,1.38
2022-09-03T04:38:09.627Z,1.58
2022-09-03T04:40:35.924Z,1.17
2022-09-03T04:43:02.356Z,1.00
2022-09-03T04:45:28.813Z,1.23
2022-09-03T04:48:02.184Z,1.35
2022-09-03T04:50:28.977Z,1.45
2022-09-03T04:53:02.548Z,1.30
2022-09-03T04:55:37.624Z,1.05
2022-09-03T04:58:04.633Z,1.30
2022-09-03T05:00:30.960Z,1.35
2022-09-03T05:03:00.432Z,1.13
2022-09-03T05:05:26.716Z,1.00
2022-09-03T05:07:53.478Z,1.20
2022-09-03T05:10:23.986Z,1.10
2022-09-03T05:13:04.528Z,1.30
2022-09-03T05:15:31.506Z,1.42
2022-09-03T05:18:01.944Z,0.98
2022-09-03T05:20:29.967Z,1.30
2022-09-03T05:22:56.721Z,1.25
2022-09-03T05:25:24.016Z,1.30
2022-09-03T05:27:50.382Z,1.15
2022-09-03T05:30:16.676Z,1.10
2022-09-03T05:32:42.970Z,1.30
2022-09-03T05:35:10.572Z,1.23
2022-09-03T05:37:37.610Z,1.00
2022-09-03T05:40:04.369Z,1.30
2022-09-03T05:42:32.289Z,0.90
2022-09-03T05:44:58.666Z,1.10
2022-09-03T05:47:24.988Z,1.02
2022-09-03T05:49:51.548Z,1.00
2022-09-03T05:52:19.599Z,1.20
2022-09-03T05:54:46.983Z,1.00
2022-09-03T05:57:14.219Z,1.00
2022-09-03T05:59:40.744Z,1.10
2022-09-03T06:02:07.137Z,1.08
2022-09-03T06:04:33.680Z,1.20
2022-09-03T06:07:00.449Z,1.13
2022-09-03T06:09:26.748Z,1.02
2022-09-03T06:11:54.243Z,1.00
2022-09-03T06:14:23.658Z,1.02
2022-09-03T06:16:50.488Z,1.08
2022-09-03T06:19:17.303Z,1.05
2022-09-03T06:21:44.742Z,0.90
2022-09-03T06:24:12.061Z,0.95
2022-09-03T06:26:39.285Z,1.15
2022-09-03T06:29:06.094Z,1.00
2022-09-03T06:31:32.443Z,1.50
2022-09-03T06:34:03.879Z,0.93
2022-09-03T06:36:30.501Z,1.30
2022-09-03T06:38:56.946Z,1.27
2022-09-03T06:41:27.566Z,1.23
2022-09-03T06:43:55.615Z,1.02
2022-09-03T06:46:22.864Z,1.27
2022-09-03T06:48:55.468Z,1.95
2022-09-03T06:51:29.096Z,0.90
2022-09-03T06:54:02.835Z,1.10
2022-09-03T06:56:29.350Z,0.98
2022-09-03T06:58:59.469Z,1.10
2022-09-03T07:01:31.552Z,1.00
2022-09-03T07:03:59.195Z,0.80
2022-09-03T07:06:27.125Z,1.23
2022-09-03T07:08:54.552Z,0.85
2022-09-03T07:11:23.466Z,1.05
2022-09-03T07:13:50.925Z,0.80
2022-09-03T07:16:18.778Z,1.25
2022-09-03T07:18:45.360Z,0.80
2022-09-03T07:21:15.697Z,1.00
2022-09-03T07:23:42.043Z,1.05
2022-09-03T07:26:10.088Z,1.08
2022-09-03T07:28:37.449Z,0.88
2022-09-03T07:31:09.235Z,1.00
2022-09-03T07:33:35.586Z,0.90
2022-09-03T07:36:02.663Z,1.30
2022-09-03T07:38:28.936Z,0.90
2022-09-03T07:40:59.831Z,0.80
2022-09-03T07:43:27.312Z,0.80
2022-09-03T07:45:55.570Z,1.00
2022-09-03T07:48:21.890Z,0.90
2022-09-03T07:50:48.730Z,1.05
2022-09-03T07:53:20.768Z,0.80
2022-09-03T07:55:47.981Z,1.13
2022-09-03T07:58:14.297Z,1.00
2022-09-03T08:00:40.697Z,0.65
2022-09-03T08:03:08.538Z,0.80
2022-09-03T08:05:36.245Z,0.70
2022-09-03T08:08:05.823Z,0.80
2022-09-03T08:10:35.883Z,0.90
2022-09-03T08:13:05.533Z,1.00
2022-09-03T08:15:32.764Z,1.00
2022-09-03T08:18:03.708Z,0.98
2022-09-03T08:20:32.437Z,0.77
2022-09-03T08:23:02.754Z,0.93
2022-09-03T08:25:29.691Z,0.90
2022-09-03T08:27:58.388Z,1.00
2022-09-03T08:30:25.262Z,0.80
2022-09-03T08:32:51.973Z,0.80
2022-09-03T08:35:18.308Z,0.98
2022-09-03T08:37:44.677Z,0.90
2022-09-03T08:40:11.489Z,0.75
2022-09-03T08:42:47.000Z,1.00
2022-09-03T08:45:16.287Z,1.00
2022-09-03T08:47:48.283Z,1.00
2022-09-03T08:50:25.696Z,1.10
2022-09-03T08:53:03.848Z,0.90
2022-09-03T08:55:42.665Z,1.20
2022-09-03T08:58:14.057Z,1.05
2022-09-03T09:00:43.899Z,0.93
2022-09-03T09:03:23.412Z,0.90
2022-09-03T09:05:55.208Z,0.73
2022-09-03T09:08:32.853Z,1.20
2022-09-03T09:11:05.850Z,1.08
2022-09-03T09:13:41.753Z,1.00
2022-09-03T09:16:14.013Z,1.15
2022-09-03T09:18:46.981Z,0.90
2022-09-03T09:21:21.409Z,0.80
2022-09-03T09:23:50.136Z,1.02
2022-09-03T09:26:24.006Z,0.65
2022-09-03T09:28:54.293Z,1.30
2022-09-03T09:31:20.662Z,1.10
2022-09-03T09:33:47.067Z,0.90
2022-09-03T09:36:16.880Z,0.90
2022-09-03T09:38:44.154Z,1.10
2022-09-03T09:41:20.625Z,0.90
2022-09-03T09:43:50.370Z,0.80
2022-09-03T09:46:20.618Z,0.95
2022-09-03T09:48:51.745Z,0.68
2022-09-03T09:51:44.098Z,0.90
2022-09-03T09:54:16.416Z,1.30
2022-09-03T09:56:42.800Z,1.10
2022-09-03T09:59:09.929Z,1.10
2022-09-03T10:01:40.348Z,1.08
2022-09-03T10:04:11.564Z,0.88
2022-09-03T10:06:56.824Z,0.70
2022-09-03T10:09:30.863Z,0.70
2022-09-03T10:12:05.735Z,1.00
2022-09-03T10:14:37.643Z,1.00
2022-09-03T10:17:10.591Z,0.90
2022-09-03T10:19:41.414Z,1.00
2022-09-03T10:22:12.414Z,0.80
2022-09-03T10:24:49.964Z,1.10
2022-09-03T10:27:18.021Z,1.20
2022-09-03T10:29:44.538Z,1.05
2022-09-03T10:32:13.994Z,1.75
2022-09-03T10:34:43.390Z,1.08
2022-09-03T10:37:15.737Z,1.00
2022-09-03T10:39:58.959Z,0.80
2022-09-03T10:42:38.167Z,0.90
2022-09-03T10:45:23.401Z,0.80
2022-09-03T10:48:01.956Z,0.85
2022-09-03T10:50:39.044Z,0.93
2022-09-03T10:53:12.159Z,1.08
2022-09-03T10:55:48.152Z,0.98
2022-09-03T10:58:33.347Z,0.70
2022-09-03T11:01:04.696Z,0.85
2022-09-03T11:03:33.975Z,0.70
2022-09-03T11:06:03.407Z,1.30
2022-09-03T11:08:36.440Z,0.88
2022-09-03T11:11:15.088Z,0.75
2022-09-03T11:13:46.899Z,1.60
2022-09-03T11:16:20.514Z,1.48
2022-09-03T11:18:53.795Z,0.95
2022-09-03T11:21:22.111Z,1.00
2022-09-03T11:23:55.167Z,1.15
2022-09-03T11:26:23.895Z,1.50
2022-09-03T11:28:53.032Z,1.10
2022-09-03T11:31:25.432Z,1.27
2022-09-03T11:33:54.861Z,1.20
2022-09-03T11:36:25.574Z,1.08
2022-09-03T11:38:51.853Z,1.15
2022-09-03T11:41:28.520Z,1.20
2022-09-03T11:43:54.996Z,1.00
2022-09-03T11:46:21.656Z,1.33
2022-09-03T11:48:48.314Z,0.90
2022-09-03T11:51:33.196Z,1.25
2022-09-03T11:54:00.736Z,1.10
2022-09-03T11:56:27.582Z,0.90
2022-09-03T11:59:03.305Z,1.85
2022-09-03T12:01:30.702Z,0.85
2022-09-03T12:03:59.264Z,1.05
2022-09-03T12:06:28.471Z,1.23
2022-09-03T12:08:57.790Z,1.25
2022-09-03T12:11:43.002Z,1.05
2022-09-03T12:14:18.387Z,1.20
2022-09-03T12:17:00.032Z,1.20
2022-09-03T12:19:32.484Z,1.00
2022-09-03T12:21:58.821Z,1.05
2022-09-03T12:24:28.856Z,1.05
2022-09-03T12:26:57.663Z,0.80
2022-09-03T12:29:27.596Z,0.90
2022-09-03T12:31:56.421Z,1.00
2022-09-03T12:34:23.275Z,0.95
2022-09-03T12:36:54.356Z,1.48
2022-09-03T12:42:14.921Z,1.20
2022-09-03T12:44:42.475Z,1.00
2022-09-03T12:50:04.821Z,1.10
2022-09-03T12:52:33.472Z,0.75
2022-09-03T12:55:04.389Z,1.23
2022-09-03T12:57:36.718Z,0.75
2022-09-03T13:00:06.086Z,1.27
2022-09-03T13:02:38.052Z,1.45
2022-09-03T13:05:05.408Z,1.15
2022-09-03T13:07:38.162Z,0.80
2022-09-03T13:10:26.832Z,0.93
2022-09-03T13:12:58.111Z,0.98
2022-09-03T13:15:25.794Z,0.80
2022-09-03T13:18:01.315Z,0.90
2022-09-03T13:20:32.122Z,0.80
2022-09-03T13:22:58.357Z,0.80
2022-09-03T13:25:24.618Z,1.10
2022-09-03T13:28:03.173Z,0.90
2022-09-03T13:30:32.807Z,1.20
2022-09-03T13:33:09.040Z,0.88
2022-09-03T13:35:59.497Z,1.35
2022-09-03T13:38:44.465Z,0.95
2022-09-03T13:41:21.296Z,1.17
2022-09-03T13:44:08.545Z,1.00
2022-09-03T13:46:53.859Z,0.90
2022-09-03T13:49:57.784Z,1.30
2022-09-03T13:52:42.926Z,1.00
2022-09-03T13:55:15.437Z,1.10
2022-09-03T13:57:47.528Z,1.13
2022-09-03T14:00:21.969Z,0.90
2022-09-03T14:03:16.639Z,0.90
2022-09-03T14:05:51.871Z,1.00
2022-09-03T14:08:32.385Z,1.08
2022-09-03T14:10:58.695Z,1.20
2022-09-03T14:13:45.999Z,1.05
2022-09-03T14:16:18.414Z,0.80
2022-09-03T14:18:50.810Z,1.00
2022-09-03T14:21:20.772Z,0.90
2022-09-03T14:23:59.325Z,0.90
2022-09-03T14:26:39.523Z,0.70
2022-09-03T14:29:12.435Z,1.00
2022-09-03T14:31:41.922Z,1.00
2022-09-03T14:34:14.402Z,0.88
2022-09-03T14:36:44.069Z,0.70
2022-09-03T14:39:30.773Z,0.85
2022-09-03T14:42:08.177Z,0.90
2022-09-03T14:44:43.538Z,0.95
2022-09-03T14:47:17.134Z,0.90
2022-09-03T14:50:03.150Z,0.82
2022-09-03T14:52:29.836Z,0.80
2022-09-03T14:55:08.306Z,0.98
2022-09-03T14:57:34.550Z,0.80
2022-09-03T15:00:08.848Z,1.10
2022-09-03T15:02:57.827Z,0.70
2022-09-03T15:05:33.267Z,0.80
2022-09-03T15:08:05.938Z,0.80
2022-09-03T15:10:56.648Z,0.70
2022-09-03T15:13:23.273Z,0.63
2022-09-03T15:16:01.815Z,0.70
2022-09-03T15:18:46.959Z,0.75
2022-09-03T15:21:25.447Z,0.95
2022-09-03T15:24:00.676Z,1.25
2022-09-03T15:26:45.869Z,1.10
2022-09-03T15:29:21.474Z,1.00
2022-09-03T15:31:53.663Z,0.80
2022-09-03T15:34:38.831Z,1.00
2022-09-03T15:37:10.563Z,1.08
2022-09-03T15:39:38.975Z,0.68
2022-09-03T15:42:10.322Z,1.10
2022-09-03T15:44:41.832Z,0.80
2022-09-03T15:47:14.057Z,0.60
2022-09-03T15:50:08.159Z,0.80
2022-09-03T15:52:50.784Z,1.02
2022-09-03T15:55:29.249Z,1.25
2022-09-03T15:58:12.708Z,1.05
2022-09-03T16:01:03.090Z,0.85
2022-09-03T16:03:32.553Z,0.80
2022-09-03T16:06:02.517Z,0.82
2022-09-03T16:08:37.828Z,1.17
2022-09-03T16:11:06.923Z,1.10
2022-09-03T16:13:43.024Z,1.20
2022-09-03T16:16:16.498Z,0.90
2022-09-03T16:18:53.968Z,1.10
2022-09-03T16:21:23.317Z,1.17
2022-09-03T16:23:59.849Z,0.98
2022-09-03T16:26:33.544Z,0.85
2022-09-03T16:29:07.372Z,0.80
2022-09-03T16:31:42.829Z,1.00
2022-09-03T16:34:18.674Z,0.80
2022-09-03T16:36:49.112Z,0.90
2022-09-03T16:39:18.669Z,0.80
2022-09-03T16:42:03.175Z,1.10
2022-09-03T16:44:50.553Z,1.10
2022-09-03T16:47:37.169Z,1.05
2022-09-03T16:50:13.647Z,0.80
2022-09-03T16:52:53.106Z,1.00
2022-09-03T16:55:21.255Z,0.73
2022-09-03T16:58:09.738Z,0.90
2022-09-03T17:00:41.835Z,1.00
2022-09-03T17:03:26.299Z,0.80
2022-09-03T17:06:12.714Z,1.25
2022-09-03T17:08:44.792Z,1.73
2022-09-03T17:11:31.320Z,2.30
2022-09-03T17:14:03.972Z,2.65
2022-09-03T17:16:30.266Z,2.03
2022-09-03T17:18:59.371Z,2.63
2022-09-03T17:21:34.971Z,3.78
2022-09-03T17:24:12.097Z,3.15
2022-09-03T17:26:47.439Z,3.92
2022-09-03T17:29:32.651Z,2.95
2022-09-03T17:31:58.901Z,3.92
2022-09-03T17:34:37.529Z,3.42
2022-09-03T17:37:11.386Z,3.25
2022-09-03T17:39:37.736Z,2.92
2022-09-03T17:42:06.329Z,2.85
2022-09-03T17:44:38.582Z,3.22
2022-09-03T17:47:23.720Z,2.97
2022-09-03T17:49:58.823Z,2.53
2022-09-03T17:52:49.481Z,2.70
2022-09-03T17:55:25.276Z,2.65
2022-09-03T17:57:53.994Z,2.50
2022-09-03T18:00:24.523Z,2.42
2022-09-03T18:02:57.852Z,3.40
2022-09-03T18:05:27.380Z,2.70
2022-09-03T18:08:00.659Z,2.90
2022-09-03T18:10:39.286Z,3.63
2022-09-03T18:13:16.448Z,3.17
2022-09-03T18:15:57.326Z,3.22
2022-09-03T18:18:28.828Z,3.50
2022-09-03T18:21:24.378Z,2.78
2022-09-03T18:24:31.673Z,3.88
2022-09-03T18:27:22.524Z,3.00
2022-09-03T18:30:12.548Z,3.20
2022-09-03T18:32:57.384Z,2.53
2022-09-03T18:35:44.030Z,3.38
2022-09-03T18:38:28.916Z,3.20
2022-09-03T18:41:17.337Z,3.33
2022-09-03T18:44:09.092Z,3.70
2022-09-03T18:48:02.153Z,3.30
2022-09-03T18:50:14.074Z,3.17
2022-09-03T18:53:17.558Z,3.40
2022-09-03T18:56:07.915Z,3.15
2022-09-03T18:59:05.038Z,3.25
2022-09-03T19:01:55.287Z,3.25
2022-09-03T19:04:43.511Z,3.15
2022-09-03T19:07:28.607Z,2.97
2022-09-03T19:10:24.250Z,3.33
2022-09-03T19:13:21.706Z,3.00
2022-09-03T19:16:19.669Z,3.35
2022-09-03T19:19:04.425Z,3.17
2022-09-03T19:21:59.983Z,3.05
2022-09-03T19:24:47.204Z,3.50
2022-09-03T19:27:58.610Z,3.63
2022-09-03T19:31:00.281Z,3.80
2022-09-03T19:33:51.834Z,2.95
2022-09-03T19:36:36.618Z,3.58
2022-09-03T19:39:21.459Z,3.30
2022-09-03T19:42:06.522Z,3.42
2022-09-03T19:45:03.966Z,3.67
2022-09-03T19:47:58.504Z,3.45
2022-09-03T19:50:48.043Z,3.53
2022-09-03T19:53:35.788Z,4.20
2022-09-03T19:56:23.942Z,3.42
2022-09-03T19:59:12.941Z,2.70
2022-09-03T20:01:58.432Z,3.72
2022-09-03T20:04:51.059Z,2.60
2022-09-03T20:07:37.572Z,3.17
2022-09-03T20:12:53.029Z,3.38
2022-09-03T20:15:21.254Z,3.67
2022-09-03T20:18:07.269Z,2.92
2022-09-03T20:20:33.590Z,3.05
2022-09-03T20:23:03.196Z,2.75
2022-09-03T20:25:35.713Z,3.28
2022-09-03T20:28:08.047Z,3.10
2022-09-03T20:30:37.254Z,3.67
2022-09-03T20:33:22.648Z,3.83
2022-09-03T20:36:15.671Z,3.00
2022-09-03T20:38:47.968Z,3.05
2022-09-03T20:41:28.825Z,3.17
2022-09-03T20:43:57.831Z,3.03
2022-09-03T20:46:43.087Z,3.13
2022-09-03T20:49:30.779Z,3.35
2022-09-03T20:52:18.456Z,2.60
2022-09-03T20:54:48.145Z,3.10
2022-09-03T20:57:29.283Z,2.75
2022-09-03T20:59:55.510Z,2.70
2022-09-03T21:02:37.409Z,2.75
2022-09-03T21:05:22.273Z,2.80
2022-09-03T21:08:05.793Z,3.05
2022-09-03T21:10:44.275Z,3.08
2022-09-03T21:13:16.067Z,2.58
2022-09-03T21:15:45.377Z,2.97
2022-09-03T21:18:20.799Z,2.80
2022-09-03T21:21:11.904Z,2.75
2022-09-03T21:23:41.536Z,2.90
2022-09-03T21:26:14.718Z,2.70
2022-09-03T21:28:46.355Z,2.88
2022-09-03T21:31:22.227Z,3.05
2022-09-03T21:33:51.055Z,3.50
2022-09-03T21:36:25.789Z,2.50
2022-09-03T21:38:56.485Z,2.55
2022-09-03T21:41:41.425Z,3.10
2022-09-03T21:44:15.055Z,3.10
2022-09-03T21:46:53.898Z,3.08
2022-09-03T21:49:23.989Z,2.50
2022-09-03T21:51:58.676Z,2.85
2022-09-03T21:54:28.322Z,3.30
2022-09-03T21:57:17.563Z,2.70
2022-09-03T21:59:57.615Z,2.83
2022-09-03T22:02:25.861Z,3.03
2022-09-03T22:04:52.975Z,2.97
2022-09-03T22:07:42.701Z,2.95
2022-09-03T22:10:16.690Z,2.97
2022-09-03T22:12:50.227Z,2.75
2022-09-03T22:15:18.275Z,3.28
2022-09-03T22:17:55.824Z,3.63
2022-09-03T22:20:23.089Z,3.20
2022-09-03T22:22:49.357Z,3.00
2022-09-03T22:25:34.045Z,2.60
2022-09-03T22:28:06.466Z,2.70
2022-09-03T22:30:37.301Z,2.53
2022-09-03T22:33:24.265Z,3.05
2022-09-03T22:35:56.041Z,2.50
2022-09-03T22:38:22.570Z,3.15
2022-09-03T22:41:07.815Z,3.08
2022-09-03T22:43:37.217Z,3.17
2022-09-03T22:46:03.640Z,2.90
2022-09-03T22:48:56.398Z,2.45
2022-09-03T22:51:23.066Z,2.53
2022-09-03T22:54:16.875Z,3.42
2022-09-03T22:56:43.813Z,3.10
2022-09-03T22:59:12.869Z,2.92
2022-09-03T23:01:49.602Z,2.85
2022-09-03T23:04:34.594Z,3.50
2022-09-03T23:07:24.447Z,3.00
2022-09-03T23:09:54.079Z,2.85
2022-09-03T23:12:23.184Z,3.05
2022-09-03T23:14:53.653Z,2.63
2022-09-03T23:19:58.501Z,2.67
2022-09-03T23:22:30.947Z,2.90
2022-09-03T23:25:01.832Z,2.90
2022-09-03T23:27:35.160Z,3.08
2022-09-03T23:30:01.707Z,2.58
2022-09-03T23:32:33.142Z,2.95
2022-09-03T23:35:02.706Z,2.83
2022-09-03T23:37:33.695Z,2.80
2022-09-03T23:40:03.865Z,3.00
2022-09-03T23:42:36.133Z,2.90
2022-09-03T23:45:15.397Z,3.00
2022-09-03T23:47:45.883Z,2.90
2022-09-03T23:50:31.610Z,2.47
2022-09-03T23:53:00.670Z,2.40
2022-09-03T23:55:47.383Z,2.67
2022-09-03T23:58:18.531Z,2.60
